createdAt,value
2023-02-09T00:01:25.697Z,-6.50
2023-02-09T00:03:52.815Z,-6.60
2023-02-09T00:06:21.721Z,-6.60
2023-02-09T00:08:48.690Z,-6.60
2023-02-09T00:11:19.234Z,-6.40
2023-02-09T00:13:46.142Z,-6.60
2023-02-09T00:16:13.120Z,-6.50
2023-02-09T00:18:40.025Z,-6.50
2023-02-09T00:21:09.287Z,-3.70
2023-02-09T00:23:40.077Z,-6.50
2023-02-09T00:26:09.132Z,-6.30
2023-02-09T00:28:36.543Z,-6.50
2023-02-09T00:31:10.558Z,-6.50
2023-02-09T00:33:40.492Z,-6.40
2023-02-09T00:36:10.862Z,-3.50
2023-02-09T00:38:38.004Z,-6.40
2023-02-09T00:41:05.164Z,-6.40
2023-02-09T00:43:32.427Z,-6.40
2023-02-09T00:45:59.648Z,-6.40
2023-02-09T00:48:26.753Z,-6.40
2023-02-09T00:50:54.162Z,-6.30
2023-02-09T00:53:21.638Z,-6.50
2023-02-09T00:55:48.551Z,-6.40
2023-02-09T00:58:15.610Z,-6.50
2023-02-09T01:00:43.306Z,-6.50
2023-02-09T01:03:10.463Z,-6.30
2023-02-09T01:05:41.530Z,-6.40
2023-02-09T01:08:08.661Z,-6.20
2023-02-09T01:10:35.534Z,-6.50
2023-02-09T01:13:03.434Z,-6.50
2023-02-09T01:15:30.301Z,-6.50
2023-02-09T01:17:58.262Z,-5.70
2023-02-09T01:20:25.953Z,-6.50
2023-02-09T01:22:53.173Z,-6.50
2023-02-09T01:25:20.213Z,-6.60
2023-02-09T01:27:47.190Z,-6.50
2023-02-09T01:30:14.341Z,-6.70
2023-02-09T01:32:41.224Z,-5.30
2023-02-09T01:35:08.342Z,-6.70
2023-02-09T01:37:35.806Z,-6.60
2023-02-09T01:40:03.056Z,-6.70
2023-02-09T01:42:29.952Z,-6.60
2023-02-09T01:45:07.669Z,-6.80
2023-02-09T01:47:39.839Z,-6.70
2023-02-09T01:50:06.844Z,-6.80
2023-02-09T01:52:33.808Z,-6.70
2023-02-09T01:55:02.806Z,-6.90
2023-02-09T01:57:32.971Z,-4.30
2023-02-09T02:00:06.726Z,-6.90
2023-02-09T02:02:42.395Z,-6.80
2023-02-09T02:05:09.828Z,-7.00
2023-02-09T02:07:37.305Z,-6.90
2023-02-09T02:10:04.406Z,-7.00
2023-02-09T02:12:32.653Z,-6.90
2023-02-09T02:14:59.587Z,-7.00
2023-02-09T02:17:29.642Z,-7.00
2023-02-09T02:20:16.677Z,-7.00
2023-02-09T02:22:52.718Z,-6.90
2023-02-09T02:25:38.297Z,-7.10
2023-02-09T02:28:17.446Z,-7.10
2023-02-09T02:30:56.299Z,-7.10
2023-02-09T02:33:33.608Z,-7.00
2023-02-09T02:36:05.421Z,-7.10
2023-02-09T02:38:42.592Z,-4.00
2023-02-09T02:41:12.478Z,-7.10
2023-02-09T02:43:55.225Z,-7.10
2023-02-09T02:46:28.601Z,-7.20
2023-02-09T02:48:58.070Z,-7.20
2023-02-09T02:51:30.689Z,-7.30
2023-02-09T02:53:59.938Z,-7.30
2023-02-09T02:56:30.234Z,-7.40
2023-02-09T02:58:59.568Z,-7.40
2023-02-09T03:01:28.041Z,-7.50
2023-02-09T03:03:55.954Z,-7.50
2023-02-09T03:06:22.818Z,-7.40
2023-02-09T03:08:51.532Z,-7.40
2023-02-09T03:11:19.610Z,-7.40
2023-02-09T03:14:05.230Z,-7.30
2023-02-09T03:16:44.255Z,-7.30
2023-02-09T03:19:11.137Z,-7.30
2023-02-09T03:21:47.264Z,-7.40
2023-02-09T03:24:33.039Z,-7.30
2023-02-09T03:27:02.405Z,-7.40
2023-02-09T03:29:29.857Z,-7.40
2023-02-09T03:31:57.016Z,-7.50
2023-02-09T03:34:23.994Z,-7.50
2023-02-09T03:36:52.642Z,-7.70
2023-02-09T03:39:20.117Z,-7.60
2023-02-09T03:41:47.036Z,-7.60
2023-02-09T03:44:29.300Z,-7.60
2023-02-09T03:46:59.549Z,-7.70
2023-02-09T03:49:27.791Z,-7.70
2023-02-09T03:51:54.872Z,-7.80
2023-02-09T03:54:21.867Z,-7.80
2023-02-09T03:57:04.034Z,-7.90
2023-02-09T03:59:31.113Z,-7.80
2023-02-09T04:01:58.817Z,-7.70
2023-02-09T04:04:25.747Z,-7.90
2023-02-09T04:06:52.761Z,-8.00
2023-02-09T04:09:19.993Z,-8.00
2023-02-09T04:11:47.354Z,-8.00
2023-02-09T04:14:14.914Z,-8.00
2023-02-09T04:16:41.843Z,-4.40
2023-02-09T04:19:09.778Z,-8.00
2023-02-09T04:21:37.200Z,-8.00
2023-02-09T04:24:04.248Z,-8.00
2023-02-09T04:26:31.191Z,-8.00
2023-02-09T04:28:58.111Z,-8.10
2023-02-09T04:31:25.112Z,-8.10
2023-02-09T04:33:52.048Z,-8.20
2023-02-09T04:36:19.002Z,-7.90
2023-02-09T04:38:45.935Z,-8.20
2023-02-09T04:41:12.779Z,-8.00
2023-02-09T04:43:39.615Z,-8.30
2023-02-09T04:46:06.512Z,-8.30
2023-02-09T04:48:33.407Z,-8.30
2023-02-09T04:51:00.283Z,-8.20
2023-02-09T04:53:27.287Z,-8.30
2023-02-09T04:55:54.121Z,-8.30
2023-02-09T04:58:39.833Z,-8.30
2023-02-09T05:01:07.535Z,-8.10
2023-02-09T05:03:34.831Z,-8.30
2023-02-09T05:06:03.575Z,-4.70
2023-02-09T05:08:31.008Z,-8.30
2023-02-09T05:10:57.965Z,-8.20
2023-02-09T05:13:25.473Z,-8.30
2023-02-09T05:15:52.402Z,-8.30
2023-02-09T05:18:19.495Z,-8.40
2023-02-09T05:20:47.526Z,-8.30
2023-02-09T05:23:14.582Z,-8.50
2023-02-09T05:25:41.964Z,-8.40
2023-02-09T05:28:08.945Z,-8.10
2023-02-09T05:30:35.965Z,-8.50
2023-02-09T05:33:03.296Z,-7.40
2023-02-09T05:35:30.521Z,-5.50
2023-02-09T05:37:57.393Z,-8.60
2023-02-09T05:40:24.382Z,-8.50
2023-02-09T05:42:51.243Z,-8.60
2023-02-09T05:45:18.144Z,-8.60
2023-02-09T05:47:45.406Z,-8.50
2023-02-09T05:50:12.316Z,-8.50
2023-02-09T05:52:39.264Z,-8.50
2023-02-09T05:55:06.300Z,-8.50
2023-02-09T05:57:33.224Z,-8.40
2023-02-09T06:00:00.095Z,-8.40
2023-02-09T06:02:27.177Z,-8.50
2023-02-09T06:04:54.041Z,-8.50
2023-02-09T06:07:20.927Z,-8.50
2023-02-09T06:09:47.771Z,-8.60
2023-02-09T06:12:14.689Z,-8.50
2023-02-09T06:14:50.728Z,-8.50
2023-02-09T06:17:17.665Z,-8.50
2023-02-09T06:19:48.637Z,-8.50
2023-02-09T06:22:15.537Z,-8.50
2023-02-09T06:24:42.387Z,-8.50
2023-02-09T06:27:09.281Z,-8.60
2023-02-09T06:29:36.193Z,-8.60
2023-02-09T06:32:03.164Z,-8.60
2023-02-09T06:34:30.325Z,-8.60
2023-02-09T06:36:57.193Z,-8.40
2023-02-09T06:39:24.446Z,-8.60
2023-02-09T06:41:52.399Z,-8.50
2023-02-09T06:44:19.474Z,-8.60
2023-02-09T06:46:46.705Z,-8.50
2023-02-09T06:49:13.670Z,-8.50
2023-02-09T06:51:40.614Z,-8.50
2023-02-09T06:54:07.515Z,-8.50
2023-02-09T06:56:35.549Z,-8.50
2023-02-09T06:59:02.431Z,-8.40
2023-02-09T07:01:29.336Z,-8.30
2023-02-09T07:03:56.286Z,-8.50
2023-02-09T07:06:23.277Z,-8.50
2023-02-09T07:08:50.668Z,-8.50
2023-02-09T07:11:18.218Z,-8.40
2023-02-09T07:13:46.142Z,-8.40
2023-02-09T07:16:13.475Z,-8.30
2023-02-09T07:18:40.438Z,-8.30
2023-02-09T07:21:08.819Z,-8.30
2023-02-09T07:23:36.151Z,-8.40
2023-02-09T07:26:06.927Z,-8.30
2023-02-09T07:28:34.858Z,-8.30
2023-02-09T07:31:06.917Z,-8.30
2023-02-09T07:33:58.670Z,-8.30
2023-02-09T07:36:25.588Z,-8.20
2023-02-09T07:38:52.760Z,-8.10
2023-02-09T07:41:21.145Z,-8.10
2023-02-09T07:44:03.657Z,-8.00
2023-02-09T07:46:31.125Z,-7.80
2023-02-09T07:49:11.571Z,-7.70
2023-02-09T07:51:38.820Z,-7.60
2023-02-09T07:54:07.392Z,-7.50
2023-02-09T07:56:37.446Z,-7.30
2023-02-09T07:59:04.409Z,-7.20
2023-02-09T08:01:31.369Z,-7.10
2023-02-09T08:03:58.564Z,-6.80
2023-02-09T08:06:41.341Z,-6.80
2023-02-09T08:09:09.218Z,-6.60
2023-02-09T08:11:40.448Z,-6.50
2023-02-09T08:14:14.261Z,-6.50
2023-02-09T08:16:41.322Z,-6.20
2023-02-09T08:19:19.933Z,-6.00
2023-02-09T08:21:48.442Z,-6.00
2023-02-09T08:24:16.310Z,-5.70
2023-02-09T08:26:43.412Z,-5.70
2023-02-09T08:29:10.702Z,-3.70
2023-02-09T08:31:37.677Z,-5.30
2023-02-09T08:34:04.648Z,-2.00
2023-02-09T08:36:31.780Z,-5.00
2023-02-09T08:38:58.710Z,-1.30
2023-02-09T08:41:25.567Z,-4.70
2023-02-09T08:43:52.535Z,-4.50
2023-02-09T08:46:19.532Z,-4.30
2023-02-09T08:48:47.507Z,-1.30
2023-02-09T08:51:15.901Z,-4.10
2023-02-09T08:53:43.465Z,-2.30
2023-02-09T08:56:10.449Z,-3.80
2023-02-09T08:58:37.395Z,-0.90
2023-02-09T09:01:05.554Z,-1.20
2023-02-09T09:03:33.293Z,-3.10
2023-02-09T09:06:01.402Z,-3.20
2023-02-09T09:08:29.319Z,-0.30
2023-02-09T09:10:56.189Z,0.00
2023-02-09T09:13:24.440Z,0.10
2023-02-09T09:15:51.815Z,-2.60
2023-02-09T09:18:18.743Z,-0.20
2023-02-09T09:20:45.623Z,-2.60
2023-02-09T09:23:12.613Z,-0.60
2023-02-09T09:25:39.812Z,-2.20
2023-02-09T09:28:07.473Z,0.90
2023-02-09T09:30:34.470Z,-2.10
2023-02-09T09:33:01.654Z,0.20
2023-02-09T09:35:28.788Z,-1.80
2023-02-09T09:37:58.769Z,0.70
2023-02-09T09:40:28.542Z,-1.70
2023-02-09T09:42:57.358Z,0.80
2023-02-09T09:45:25.764Z,-1.50
2023-02-09T09:47:53.143Z,1.70
2023-02-09T09:50:31.586Z,1.40
2023-02-09T09:53:01.648Z,-1.00
2023-02-09T09:55:29.446Z,1.40
2023-02-09T09:57:58.450Z,0.60
2023-02-09T10:00:27.295Z,2.00
2023-02-09T10:02:54.209Z,0.50
2023-02-09T10:05:22.723Z,-0.80
2023-02-09T10:08:05.218Z,-0.30
2023-02-09T10:10:41.444Z,-0.50
2023-02-09T10:13:13.533Z,-0.30
2023-02-09T10:15:46.993Z,1.90
2023-02-09T10:18:15.419Z,0.00
2023-02-09T10:20:44.002Z,0.10
2023-02-09T10:23:16.942Z,2.00
2023-02-09T10:25:52.226Z,0.10
2023-02-09T10:28:20.388Z,0.20
2023-02-09T10:30:47.994Z,0.20
2023-02-09T10:33:22.080Z,2.60
2023-02-09T10:35:53.713Z,0.20
2023-02-09T10:38:21.947Z,0.30
2023-02-09T10:40:49.011Z,0.10
2023-02-09T10:43:32.561Z,1.40
2023-02-09T10:46:00.513Z,0.20
2023-02-09T10:48:27.849Z,1.60
2023-02-09T10:51:00.249Z,3.60
2023-02-09T10:53:27.149Z,0.70
2023-02-09T10:56:02.786Z,3.40
2023-02-09T10:58:31.770Z,0.90
2023-02-09T11:01:17.376Z,3.60
2023-02-09T11:04:03.215Z,1.20
2023-02-09T11:06:35.778Z,1.10
2023-02-09T11:09:12.741Z,1.20
2023-02-09T11:12:05.863Z,1.00
2023-02-09T11:14:59.014Z,1.20
2023-02-09T11:17:36.756Z,1.30
2023-02-09T11:20:23.565Z,1.40
2023-02-09T11:23:09.328Z,1.50
2023-02-09T11:25:45.414Z,1.70
2023-02-09T11:28:31.521Z,1.60
2023-02-09T11:30:58.529Z,1.70
2023-02-09T11:33:25.523Z,4.50
2023-02-09T11:36:10.908Z,1.90
2023-02-09T11:38:57.984Z,2.00
2023-02-09T11:41:48.332Z,3.70
2023-02-09T11:44:21.163Z,2.20
2023-02-09T11:46:48.220Z,4.40
2023-02-09T11:49:18.034Z,3.90
2023-02-09T11:51:46.152Z,4.50
2023-02-09T11:54:17.426Z,3.80
2023-02-09T11:56:52.309Z,5.00
2023-02-09T11:59:25.794Z,2.70
2023-02-09T12:02:07.930Z,2.50
2023-02-09T12:04:44.078Z,2.70
2023-02-09T12:07:20.234Z,2.30
2023-02-09T12:09:53.400Z,2.40
2023-02-09T12:12:28.160Z,2.30
2023-02-09T12:14:55.043Z,2.70
2023-02-09T12:17:21.965Z,2.90
2023-02-09T12:19:57.252Z,3.60
2023-02-09T12:22:33.215Z,2.60
2023-02-09T12:25:12.495Z,3.00
2023-02-09T12:27:44.124Z,2.90
2023-02-09T12:30:49.827Z,3.20
2023-02-09T12:33:27.487Z,3.20
2023-02-09T12:36:09.353Z,3.20
2023-02-09T12:39:03.868Z,3.30
2023-02-09T12:41:50.991Z,3.50
2023-02-09T12:44:18.573Z,5.50
2023-02-09T12:46:45.555Z,3.80
2023-02-09T12:49:12.433Z,5.50
2023-02-09T12:51:51.009Z,3.80
2023-02-09T12:54:44.773Z,3.50
2023-02-09T12:57:14.781Z,3.60
2023-02-09T12:59:41.614Z,3.80
2023-02-09T13:02:08.441Z,4.10
2023-02-09T13:04:37.296Z,3.50
2023-02-09T13:07:06.236Z,5.80
2023-02-09T13:09:36.417Z,3.80
2023-02-09T13:12:09.877Z,6.70
2023-02-09T13:14:38.656Z,3.70
2023-02-09T13:17:08.731Z,5.30
2023-02-09T13:20:09.867Z,3.80
2023-02-09T13:22:52.736Z,3.90
2023-02-09T13:25:22.631Z,3.80
2023-02-09T13:27:49.880Z,3.70
2023-02-09T13:30:31.062Z,6.70
2023-02-09T13:33:02.835Z,3.90
2023-02-09T13:35:32.916Z,3.90
2023-02-09T13:38:00.652Z,4.00
2023-02-09T13:40:30.966Z,6.30
2023-02-09T13:42:58.380Z,3.90
2023-02-09T13:45:50.704Z,6.30
2023-02-09T13:48:29.829Z,4.00
2023-02-09T13:50:58.178Z,4.20
2023-02-09T13:54:10.368Z,7.00
2023-02-09T13:56:38.537Z,4.20
2023-02-09T13:59:05.692Z,4.20
2023-02-09T14:01:35.035Z,4.00
2023-02-09T14:04:15.659Z,3.80
2023-02-09T14:06:45.995Z,3.70
2023-02-09T14:09:39.405Z,3.50
2023-02-09T14:12:10.865Z,3.40
2023-02-09T14:14:58.681Z,3.50
2023-02-09T14:17:30.514Z,5.60
2023-02-09T14:19:58.701Z,3.30
2023-02-09T14:22:31.660Z,3.10
2023-02-09T14:24:59.035Z,2.90
2023-02-09T14:27:27.833Z,4.70
2023-02-09T14:29:55.339Z,2.70
2023-02-09T14:32:32.347Z,5.10
2023-02-09T14:35:08.781Z,2.70
2023-02-09T14:37:36.925Z,2.60
2023-02-09T14:40:07.097Z,2.90
2023-02-09T14:42:39.498Z,4.90
2023-02-09T14:45:16.317Z,3.40
2023-02-09T14:48:13.460Z,2.60
2023-02-09T14:50:41.998Z,2.30
2023-02-09T14:53:12.043Z,2.00
2023-02-09T14:55:42.163Z,1.70
2023-02-09T14:58:12.447Z,1.40
2023-02-09T15:00:39.473Z,1.30
2023-02-09T15:03:06.453Z,1.20
2023-02-09T15:05:33.480Z,1.10
2023-02-09T15:08:25.152Z,3.20
2023-02-09T15:10:53.894Z,0.90
2023-02-09T15:13:22.317Z,1.00
2023-02-09T15:15:54.406Z,2.70
2023-02-09T15:18:23.190Z,1.00
2023-02-09T15:20:51.020Z,0.90
2023-02-09T15:23:18.281Z,0.80
2023-02-09T15:25:45.781Z,3.40
2023-02-09T15:28:16.441Z,2.90
2023-02-09T15:30:43.982Z,3.40
2023-02-09T15:33:25.050Z,0.70
2023-02-09T15:35:52.154Z,0.60
2023-02-09T15:38:19.236Z,2.40
2023-02-09T15:41:05.570Z,0.40
2023-02-09T15:43:51.152Z,2.80
2023-02-09T15:46:36.828Z,2.70
2023-02-09T15:49:05.589Z,2.50
2023-02-09T15:51:34.211Z,3.00
2023-02-09T15:54:02.908Z,3.00
2023-02-09T15:56:30.142Z,3.10
2023-02-09T15:59:03.573Z,1.40
2023-02-09T16:01:34.548Z,3.50
2023-02-09T16:04:13.563Z,2.50
2023-02-09T16:06:49.598Z,2.80
2023-02-09T16:09:18.182Z,2.80
2023-02-09T16:11:45.105Z,3.10
2023-02-09T16:14:16.756Z,1.80
2023-02-09T16:16:45.886Z,-0.30
2023-02-09T16:19:13.558Z,2.10
2023-02-09T16:21:42.506Z,1.70
2023-02-09T16:24:13.851Z,1.90
2023-02-09T16:26:40.811Z,2.50
2023-02-09T16:29:11.617Z,1.80
2023-02-09T16:31:38.497Z,2.50
2023-02-09T16:34:05.560Z,1.20
2023-02-09T16:36:33.842Z,-0.60
2023-02-09T16:39:00.706Z,1.60
2023-02-09T16:41:46.386Z,2.30
2023-02-09T16:44:21.345Z,-0.60
2023-02-09T16:46:49.782Z,-0.70
2023-02-09T16:49:27.796Z,-0.60
2023-02-09T16:51:58.584Z,-0.80
2023-02-09T16:54:25.477Z,-0.90
2023-02-09T16:56:54.640Z,-1.10
2023-02-09T16:59:21.747Z,-0.90
2023-02-09T17:01:49.795Z,1.50
2023-02-09T17:04:17.102Z,-1.20
2023-02-09T17:06:45.128Z,-1.30
2023-02-09T17:09:15.576Z,2.00
2023-02-09T17:11:42.867Z,-1.40
2023-02-09T17:14:09.866Z,-4.00
2023-02-09T17:16:38.630Z,-1.60
2023-02-09T17:19:10.608Z,1.20
2023-02-09T17:21:38.919Z,-1.70
2023-02-09T17:24:11.838Z,-1.70
2023-02-09T17:26:40.495Z,-1.70
2023-02-09T17:29:07.841Z,-1.70
2023-02-09T17:31:50.813Z,0.90
2023-02-09T17:34:20.381Z,-1.30
2023-02-09T17:36:47.240Z,1.00
2023-02-09T17:39:14.258Z,-1.10
2023-02-09T17:41:44.765Z,1.10
2023-02-09T17:47:03.538Z,-2.00
2023-02-09T17:49:30.510Z,-1.50
2023-02-09T17:51:57.460Z,-2.10
2023-02-09T17:54:24.382Z,0.70
2023-02-09T17:56:51.240Z,1.00
2023-02-09T17:59:20.326Z,0.20
2023-02-09T18:01:50.315Z,1.10
2023-02-09T18:08:17.165Z,-2.10
2023-02-09T18:10:44.327Z,-2.20
2023-02-09T18:17:11.971Z,-2.30
2023-02-09T18:19:38.882Z,-0.40
2023-02-09T18:22:06.082Z,-1.60
2023-02-09T18:24:34.283Z,-0.40
2023-02-09T18:27:01.160Z,0.40
2023-02-09T18:29:31.098Z,0.50
2023-02-09T18:31:58.799Z,0.30
2023-02-09T18:34:25.982Z,0.40
2023-02-09T18:36:52.900Z,0.30
2023-02-09T18:39:25.828Z,-0.10
2023-02-09T18:41:54.556Z,-2.80
2023-02-09T18:44:29.314Z,0.20
2023-02-09T18:46:56.776Z,-5.60
2023-02-09T18:49:23.738Z,0.30
2023-02-09T18:51:52.194Z,-1.50
2023-02-09T18:54:19.323Z,0.20
2023-02-09T18:56:46.235Z,-0.70
2023-02-09T18:59:17.857Z,-0.20
2023-02-09T19:02:04.226Z,-3.00
2023-02-09T19:04:31.233Z,-3.10
2023-02-09T19:06:58.572Z,0.10
2023-02-09T19:09:25.426Z,-3.20
2023-02-09T19:12:01.856Z,-0.60
2023-02-09T19:14:40.253Z,-1.10
2023-02-09T19:17:32.017Z,-3.20
2023-02-09T19:19:59.464Z,-3.20
2023-02-09T19:22:27.154Z,-3.20
2023-02-09T19:24:55.468Z,-3.30
2023-02-09T19:27:24.142Z,-3.30
2023-02-09T19:29:56.756Z,-3.40
2023-02-09T19:32:24.137Z,-3.40
2023-02-09T19:34:52.107Z,-3.50
2023-02-09T19:37:20.854Z,-3.50
2023-02-09T19:40:00.429Z,-0.30
2023-02-09T19:42:27.323Z,-2.70
2023-02-09T19:44:54.451Z,-3.60
2023-02-09T19:47:27.594Z,-1.00
2023-02-09T19:49:55.306Z,-3.80
2023-02-09T19:52:28.415Z,-1.30
2023-02-09T19:55:29.650Z,-3.80
2023-02-09T19:57:56.597Z,-3.80
2023-02-09T20:00:23.472Z,-1.40
2023-02-09T20:02:50.397Z,-3.90
2023-02-09T20:05:17.712Z,-1.40
2023-02-09T20:07:44.794Z,-3.90
2023-02-09T20:10:11.691Z,-1.70
2023-02-09T20:12:38.627Z,-0.70
2023-02-09T20:15:05.592Z,-1.20
2023-02-09T20:17:32.532Z,-4.00
2023-02-09T20:19:59.493Z,-1.90
2023-02-09T20:22:26.387Z,-4.10
2023-02-09T20:24:53.240Z,-1.50
2023-02-09T20:27:20.636Z,-4.20
2023-02-09T20:29:47.518Z,-2.50
2023-02-09T20:32:14.433Z,-1.00
2023-02-09T20:34:41.524Z,-1.90
2023-02-09T20:37:08.382Z,-4.40
2023-02-09T20:39:35.284Z,-1.90
2023-02-09T20:42:20.992Z,-4.40
2023-02-09T20:45:06.463Z,-2.20
2023-02-09T20:47:33.356Z,-4.40
2023-02-09T20:50:00.472Z,-3.30
2023-02-09T20:52:28.448Z,-1.10
2023-02-09T20:54:55.886Z,-1.40
2023-02-09T20:57:29.190Z,-4.50
2023-02-09T20:59:56.919Z,-2.60
2023-02-09T21:02:23.991Z,-4.50
2023-02-09T21:04:51.175Z,-1.60
2023-02-09T21:07:20.233Z,-4.50
2023-02-09T21:09:47.371Z,-1.80
2023-02-09T21:12:14.266Z,-1.80
2023-02-09T21:14:45.116Z,-1.60
2023-02-09T21:17:12.684Z,-4.60
2023-02-09T21:19:39.772Z,-1.60
2023-02-09T21:26:04.515Z,-4.40
2023-02-09T21:28:32.024Z,-4.00
2023-02-09T21:30:59.214Z,-4.20
2023-02-09T21:33:26.306Z,-0.90
2023-02-09T21:35:53.272Z,-2.00
2023-02-09T21:38:20.132Z,-0.60
2023-02-09T21:40:47.277Z,-1.40
2023-02-09T21:43:14.361Z,-4.20
2023-02-09T21:45:41.569Z,-1.80
2023-02-09T21:48:08.569Z,-4.20
2023-02-09T21:50:35.419Z,-1.30
2023-02-09T21:53:02.349Z,-4.30
2023-02-09T21:55:30.887Z,-2.70
2023-02-09T21:57:58.392Z,-4.40
2023-02-09T22:00:25.356Z,-1.20
2023-02-09T22:02:53.104Z,-1.20
2023-02-09T22:05:20.388Z,-1.50
2023-02-09T22:08:29.314Z,-4.20
2023-02-09T22:10:59.967Z,-4.00
2023-02-09T22:13:26.863Z,-1.50
2023-02-09T22:15:53.754Z,-4.10
2023-02-09T22:18:20.611Z,-1.70
2023-02-09T22:20:48.633Z,-4.10
2023-02-09T22:23:15.813Z,-1.90
2023-02-09T22:25:42.705Z,-4.20
2023-02-09T22:28:09.652Z,-2.20
2023-02-09T22:30:36.620Z,-4.10
2023-02-09T22:33:03.544Z,-1.10
2023-02-09T22:35:30.433Z,-3.80
2023-02-09T22:37:57.324Z,-1.20
2023-02-09T22:40:24.212Z,-3.80
2023-02-09T22:42:51.100Z,-1.40
2023-02-09T22:45:17.955Z,-3.80
2023-02-09T22:47:44.821Z,-1.50
2023-02-09T22:50:11.823Z,-1.00
2023-02-09T22:52:38.846Z,-3.60
2023-02-09T22:59:33.104Z,-3.50
2023-02-09T23:01:59.954Z,-3.50
2023-02-09T23:04:26.842Z,-0.70
2023-02-09T23:06:53.668Z,-1.70
2023-02-09T23:09:20.670Z,-1.20
2023-02-09T23:11:47.544Z,-3.90
2023-02-09T23:14:14.554Z,-1.30
2023-02-09T23:16:42.867Z,-4.00
2023-02-09T23:19:13.091Z,-1.20
2023-02-09T23:21:41.119Z,-4.00
2023-02-09T23:24:08.371Z,-1.60
2023-02-09T23:26:35.775Z,-4.00
2023-02-09T23:29:04.338Z,-1.50
2023-02-09T23:31:31.333Z,-4.00
2023-02-09T23:33:58.266Z,-0.80
2023-02-09T23:36:26.606Z,-4.00
2023-02-09T23:38:54.902Z,-1.10
2023-02-09T23:41:22.316Z,-1.00
2023-02-09T23:43:49.686Z,-1.40
2023-02-09T23:46:18.255Z,-1.80
2023-02-09T23:48:45.430Z,-1.50
2023-02-09T23:51:13.624Z,-4.10
2023-02-09T23:53:40.537Z,-1.30
2023-02-09T23:56:07.870Z,-4.20
2023-02-09T23:58:38.741Z,-4.20
